createdAt,value
2018-06-03T00:01:11.517Z,99.90
2018-06-03T00:03:38.944Z,99.90
2018-06-03T00:06:06.389Z,99.90
2018-06-03T00:08:34.592Z,99.90
2018-06-03T00:11:02.037Z,99.90
2018-06-03T00:13:29.506Z,99.90
2018-06-03T00:15:56.971Z,99.90
2018-06-03T00:18:24.401Z,99.90
2018-06-03T00:21:28.466Z,99.90
2018-06-03T00:23:56.685Z,99.90
2018-06-03T00:26:24.904Z,99.90
2018-06-03T00:28:52.390Z,99.90
2018-06-03T00:31:20.600Z,99.90
2018-06-03T00:33:48.274Z,99.90
2018-06-03T00:36:27.572Z,99.90
2018-06-03T00:38:55.806Z,99.90
2018-06-03T00:41:23.254Z,99.90
2018-06-03T00:43:50.696Z,99.90
2018-06-03T00:46:18.154Z,99.90
2018-06-03T00:48:45.650Z,99.90
2018-06-03T00:51:13.118Z,99.90
2018-06-03T00:53:40.565Z,99.90
2018-06-03T00:56:08.058Z,99.90
2018-06-03T00:58:35.521Z,99.90
2018-06-03T01:01:02.967Z,99.90
2018-06-03T01:03:31.177Z,99.90
2018-06-03T01:05:58.612Z,99.90
2018-06-03T01:08:26.054Z,99.90
2018-06-03T01:10:54.257Z,99.90
2018-06-03T01:13:21.714Z,99.90
2018-06-03T01:15:49.159Z,99.90
2018-06-03T01:18:16.605Z,99.90
2018-06-03T01:20:44.035Z,99.90
2018-06-03T01:23:12.251Z,99.90
2018-06-03T01:25:39.771Z,99.90
2018-06-03T01:28:08.004Z,99.90
2018-06-03T01:30:35.449Z,99.90
2018-06-03T01:33:02.910Z,99.90
2018-06-03T01:35:30.353Z,99.90
2018-06-03T01:37:58.189Z,99.90
2018-06-03T01:40:26.425Z,99.90
2018-06-03T01:42:53.876Z,99.90
2018-06-03T01:45:21.313Z,99.90
2018-06-03T01:47:48.758Z,99.90
2018-06-03T01:50:16.194Z,99.90
2018-06-03T01:52:44.390Z,99.90
2018-06-03T01:55:11.864Z,99.90
2018-06-03T01:57:39.316Z,99.90
2018-06-03T02:00:06.791Z,99.90
2018-06-03T02:02:35.037Z,99.90
2018-06-03T02:05:02.486Z,99.90
2018-06-03T02:07:29.928Z,99.90
2018-06-03T02:09:58.181Z,99.90
2018-06-03T02:12:26.380Z,99.90
2018-06-03T02:14:53.823Z,99.90
2018-06-03T02:17:22.028Z,99.90
2018-06-03T02:19:49.489Z,99.90
2018-06-03T02:22:16.947Z,99.90
2018-06-03T02:24:44.400Z,99.90
2018-06-03T02:27:11.861Z,99.90
2018-06-03T02:29:39.308Z,99.90
2018-06-03T02:32:06.741Z,99.90
2018-06-03T02:34:34.194Z,99.90
2018-06-03T02:37:02.414Z,99.90
2018-06-03T02:39:29.876Z,99.90
2018-06-03T02:41:57.340Z,99.90
2018-06-03T02:44:24.792Z,99.90
2018-06-03T02:46:52.223Z,99.90
2018-06-03T02:49:19.689Z,99.90
2018-06-03T02:51:47.116Z,99.90
2018-06-03T02:54:14.563Z,99.90
2018-06-03T02:56:42.765Z,99.90
2018-06-03T02:59:10.227Z,99.90
2018-06-03T03:01:37.676Z,99.90
2018-06-03T03:04:05.123Z,99.90
2018-06-03T03:06:32.565Z,99.90
2018-06-03T03:09:00.763Z,99.90
2018-06-03T03:11:28.204Z,99.90
2018-06-03T03:13:55.683Z,99.90
2018-06-03T03:16:23.131Z,99.90
2018-06-03T03:18:50.588Z,99.90
2018-06-03T03:21:18.027Z,99.90
2018-06-03T03:23:45.484Z,99.90
2018-06-03T03:26:12.933Z,99.90
2018-06-03T03:28:40.380Z,99.90
2018-06-03T03:31:08.589Z,99.90
2018-06-03T03:33:36.025Z,99.90
2018-06-03T03:36:03.473Z,99.90
2018-06-03T03:38:30.907Z,99.90
2018-06-03T03:40:58.344Z,99.90
2018-06-03T03:43:25.792Z,99.90
2018-06-03T03:45:53.245Z,99.90
2018-06-03T03:48:20.695Z,99.90
2018-06-03T03:50:48.158Z,99.90
2018-06-03T03:53:15.596Z,99.90
2018-06-03T03:55:43.046Z,99.90
2018-06-03T03:58:10.498Z,99.90
2018-06-03T04:00:37.997Z,99.90
2018-06-03T04:03:05.410Z,99.90
2018-06-03T04:05:32.843Z,99.90
2018-06-03T04:08:00.326Z,99.90
2018-06-03T04:10:27.777Z,99.90
2018-06-03T04:12:55.231Z,99.90
2018-06-03T04:15:22.708Z,99.90
2018-06-03T04:17:50.145Z,99.90
2018-06-03T04:20:17.609Z,99.90
2018-06-03T04:22:45.048Z,99.90
2018-06-03T04:25:12.494Z,99.90
2018-06-03T04:27:40.709Z,99.90
2018-06-03T04:30:08.912Z,99.90
2018-06-03T04:32:36.358Z,99.90
2018-06-03T04:35:03.823Z,99.90
2018-06-03T04:37:31.292Z,99.90
2018-06-03T04:39:59.496Z,99.90
2018-06-03T04:42:26.937Z,99.90
2018-06-03T04:44:55.139Z,99.90
2018-06-03T04:47:22.579Z,99.90
2018-06-03T04:49:50.036Z,99.90
2018-06-03T04:52:17.492Z,99.90
2018-06-03T04:54:44.924Z,99.90
2018-06-03T04:57:13.140Z,99.90
2018-06-03T04:59:40.576Z,99.90
2018-06-03T05:02:08.044Z,99.90
2018-06-03T05:04:35.517Z,99.90
2018-06-03T05:07:02.980Z,99.90
2018-06-03T05:09:30.417Z,99.90
2018-06-03T05:11:57.864Z,99.90
2018-06-03T05:14:25.301Z,99.90
2018-06-03T05:16:53.517Z,99.90
2018-06-03T05:19:20.948Z,99.90
2018-06-03T05:21:48.440Z,99.90
2018-06-03T05:24:15.901Z,99.90
2018-06-03T05:26:43.352Z,99.90
2018-06-03T05:29:10.788Z,99.90
2018-06-03T05:31:38.246Z,99.90
2018-06-03T05:34:05.685Z,99.90
2018-06-03T05:36:33.123Z,99.90
2018-06-03T05:39:01.329Z,99.90
2018-06-03T05:41:28.757Z,99.90
2018-06-03T05:43:57.000Z,99.90
2018-06-03T05:46:24.437Z,99.90
2018-06-03T05:48:51.873Z,99.90
2018-06-03T05:51:19.335Z,99.90
2018-06-03T05:53:46.818Z,99.90
2018-06-03T05:56:14.256Z,99.90
2018-06-03T05:58:41.707Z,99.90
2018-06-03T06:01:09.157Z,99.90
2018-06-03T06:03:36.649Z,99.90
2018-06-03T06:06:04.097Z,99.90
2018-06-03T06:08:31.556Z,99.90
2018-06-03T06:10:59.756Z,99.90
2018-06-03T06:13:27.977Z,99.90
2018-06-03T06:15:55.408Z,99.90
2018-06-03T06:18:23.634Z,99.90
2018-06-03T06:20:51.061Z,99.90
2018-06-03T06:23:18.516Z,99.90
2018-06-03T06:25:45.980Z,99.90
2018-06-03T06:28:13.454Z,99.90
2018-06-03T06:30:40.897Z,99.90
2018-06-03T06:33:08.341Z,99.90
2018-06-03T06:35:35.767Z,99.90
2018-06-03T06:38:04.041Z,99.60
2018-06-03T06:40:32.246Z,99.50
2018-06-03T06:42:59.689Z,99.40
2018-06-03T06:45:27.124Z,99.10
2018-06-03T06:47:55.400Z,97.90
2018-06-03T06:50:23.609Z,98.40
2018-06-03T06:52:51.041Z,98.40
2018-06-03T06:55:19.256Z,97.20
2018-06-03T06:57:46.709Z,97.10
2018-06-03T07:00:14.158Z,97.00
2018-06-03T07:02:41.585Z,96.70
2018-06-03T07:05:09.816Z,96.80
2018-06-03T07:07:37.253Z,96.70
2018-06-03T07:10:04.710Z,96.30
2018-06-03T07:12:32.157Z,96.20
2018-06-03T07:14:59.605Z,96.30
2018-06-03T07:17:27.050Z,96.10
2018-06-03T07:19:55.264Z,95.50
2018-06-03T07:22:22.709Z,95.50
2018-06-03T07:24:50.178Z,95.70
2018-06-03T07:27:17.713Z,94.90
2018-06-03T07:29:45.181Z,95.30
2018-06-03T07:32:12.636Z,95.10
2018-06-03T07:34:40.096Z,95.20
2018-06-03T07:37:07.533Z,95.20
2018-06-03T07:39:35.047Z,94.50
2018-06-03T07:42:02.509Z,94.00
2018-06-03T07:44:29.948Z,93.50
2018-06-03T07:46:57.398Z,94.00
2018-06-03T07:49:25.629Z,94.10
2018-06-03T07:51:53.846Z,94.50
2018-06-03T07:54:21.314Z,94.50
2018-06-03T07:56:48.758Z,94.10
2018-06-03T07:59:16.229Z,93.50
2018-06-03T08:01:43.750Z,93.80
2018-06-03T08:04:11.214Z,93.40
2018-06-03T08:06:38.709Z,92.70
2018-06-03T08:09:06.150Z,92.90
2018-06-03T08:11:33.598Z,92.70
2018-06-03T08:14:01.813Z,92.80
2018-06-03T08:16:29.257Z,92.80
2018-06-03T08:18:57.590Z,92.90
2018-06-03T08:21:25.041Z,92.20
2018-06-03T08:23:52.517Z,91.70
2018-06-03T08:26:19.961Z,91.40
2018-06-03T08:28:47.409Z,91.50
2018-06-03T08:31:14.852Z,91.50
2018-06-03T08:33:43.053Z,91.60
2018-06-03T08:36:10.500Z,91.60
2018-06-03T08:38:37.930Z,90.90
2018-06-03T08:41:06.145Z,90.70
2018-06-03T08:43:33.590Z,90.70
2018-06-03T08:46:01.889Z,90.40
2018-06-03T08:48:29.325Z,90.40
2018-06-03T08:50:56.788Z,90.20
2018-06-03T08:53:24.249Z,90.00
2018-06-03T08:55:51.699Z,89.30
2018-06-03T08:58:19.145Z,89.70
2018-06-03T09:00:46.586Z,89.80
2018-06-03T09:03:14.068Z,90.40
2018-06-03T09:05:41.571Z,90.00
2018-06-03T09:08:09.021Z,89.20
2018-06-03T09:10:36.512Z,90.00
2018-06-03T09:13:04.012Z,88.70
2018-06-03T09:15:32.206Z,87.10
2018-06-03T09:17:59.692Z,87.00
2018-06-03T09:20:27.931Z,89.60
2018-06-03T09:22:55.367Z,88.70
2018-06-03T09:25:22.805Z,86.90
2018-06-03T09:27:50.248Z,86.10
2018-06-03T09:30:17.686Z,86.30
2018-06-03T09:32:45.917Z,86.70
2018-06-03T09:35:13.395Z,86.60
2018-06-03T09:37:40.832Z,84.90
2018-06-03T09:40:08.276Z,86.40
2018-06-03T09:42:35.720Z,85.60
2018-06-03T09:45:03.185Z,86.00
2018-06-03T09:47:30.630Z,86.30
2018-06-03T09:49:58.068Z,85.80
2018-06-03T09:52:26.280Z,83.90
2018-06-03T09:54:53.713Z,83.70
2018-06-03T09:57:21.158Z,82.90
2018-06-03T09:59:48.600Z,83.20
2018-06-03T10:02:16.069Z,83.80
2018-06-03T10:04:44.264Z,84.40
2018-06-03T10:07:11.712Z,84.40
2018-06-03T10:09:39.150Z,82.40
2018-06-03T10:12:07.389Z,80.90
2018-06-03T10:14:35.073Z,81.00
2018-06-03T10:17:02.535Z,80.00
2018-06-03T10:19:30.281Z,80.00
2018-06-03T10:21:58.560Z,79.50
2018-06-03T10:24:26.004Z,79.50
2018-06-03T10:26:53.508Z,79.90
2018-06-03T10:29:21.704Z,80.50
2018-06-03T10:31:49.154Z,80.50
2018-06-03T10:34:18.621Z,80.10
2018-06-03T10:36:50.443Z,79.40
2018-06-03T10:39:20.033Z,78.10
2018-06-03T10:41:47.994Z,78.40
2018-06-03T10:44:17.604Z,78.40
2018-06-03T10:46:46.317Z,77.50
2018-06-03T10:49:16.560Z,76.90
2018-06-03T10:51:45.646Z,78.90
2018-06-03T10:54:15.560Z,78.10
2018-06-03T10:56:44.409Z,77.60
2018-06-03T10:59:15.255Z,77.30
2018-06-03T11:01:45.712Z,78.00
2018-06-03T11:04:15.244Z,76.50
2018-06-03T11:06:44.965Z,77.90
2018-06-03T11:09:18.278Z,77.00
2018-06-03T11:11:49.845Z,77.00
2018-06-03T11:14:21.581Z,76.70
2018-06-03T11:16:54.513Z,75.70
2018-06-03T11:19:26.778Z,75.60
2018-06-03T11:21:55.129Z,74.70
2018-06-03T11:24:27.300Z,77.20
2018-06-03T11:26:56.528Z,76.80
2018-06-03T11:29:29.361Z,76.70
2018-06-03T11:32:00.009Z,77.70
2018-06-03T11:34:29.329Z,77.70
2018-06-03T11:36:59.009Z,78.50
2018-06-03T11:39:29.688Z,80.30
2018-06-03T11:42:00.384Z,80.30
2018-06-03T11:44:30.341Z,80.40
2018-06-03T11:47:01.134Z,80.30
2018-06-03T11:49:30.795Z,80.10
2018-06-03T11:51:58.225Z,80.20
2018-06-03T11:54:25.911Z,79.00
2018-06-03T11:56:59.216Z,79.60
2018-06-03T11:59:39.315Z,80.10
2018-06-03T12:02:06.811Z,80.10
2018-06-03T12:04:34.347Z,77.90
2018-06-03T12:07:01.918Z,79.40
2018-06-03T12:09:29.470Z,79.50
2018-06-03T12:11:56.923Z,78.30
2018-06-03T12:14:24.389Z,77.30
2018-06-03T12:16:51.833Z,78.50
2018-06-03T12:19:19.492Z,74.60
2018-06-03T12:21:46.928Z,76.20
2018-06-03T12:24:14.479Z,75.20
2018-06-03T12:26:42.766Z,74.10
2018-06-03T12:29:10.285Z,74.10
2018-06-03T12:31:37.764Z,76.70
2018-06-03T12:34:05.982Z,75.30
2018-06-03T12:36:33.484Z,75.30
2018-06-03T12:39:01.712Z,74.40
2018-06-03T12:41:29.896Z,74.40
2018-06-03T12:43:58.156Z,74.10
2018-06-03T12:46:25.617Z,74.00
2018-06-03T12:48:53.117Z,73.80
2018-06-03T12:51:20.566Z,74.80
2018-06-03T12:53:48.089Z,71.10
2018-06-03T12:56:15.570Z,72.10
2018-06-03T12:58:43.073Z,70.60
2018-06-03T13:01:10.542Z,71.00
2018-06-03T13:03:38.039Z,71.90
2018-06-03T13:06:05.570Z,70.80
2018-06-03T13:08:33.114Z,70.90
2018-06-03T13:11:00.629Z,69.70
2018-06-03T13:13:28.076Z,70.60
2018-06-03T13:15:55.530Z,71.00
2018-06-03T13:18:22.967Z,71.50
2018-06-03T13:20:50.421Z,71.10
2018-06-03T13:23:17.859Z,72.00
2018-06-03T13:25:45.310Z,71.30
2018-06-03T13:28:13.571Z,73.50
2018-06-03T13:30:41.012Z,73.50
2018-06-03T13:33:08.668Z,74.60
2018-06-03T13:35:37.018Z,73.50
2018-06-03T13:38:04.465Z,73.40
2018-06-03T13:40:31.928Z,72.10
2018-06-03T13:42:59.429Z,71.70
2018-06-03T13:45:26.968Z,71.80
2018-06-03T13:47:54.445Z,73.10
2018-06-03T13:50:21.898Z,73.00
2018-06-03T13:52:49.389Z,72.60
2018-06-03T13:55:17.593Z,72.60
2018-06-03T13:57:45.069Z,72.50
2018-06-03T14:00:12.500Z,74.60
2018-06-03T14:02:39.956Z,72.70
2018-06-03T14:05:07.484Z,74.60
2018-06-03T14:07:35.696Z,72.10
2018-06-03T14:10:03.132Z,72.10
2018-06-03T14:12:30.573Z,71.60
2018-06-03T14:14:59.800Z,70.60
2018-06-03T14:17:27.259Z,70.50
2018-06-03T14:19:54.700Z,69.70
2018-06-03T14:22:22.142Z,68.10
2018-06-03T14:24:50.343Z,67.80
2018-06-03T14:27:17.786Z,67.80
2018-06-03T14:29:46.252Z,68.10
2018-06-03T14:32:14.672Z,69.20
2018-06-03T14:34:42.115Z,69.10
2018-06-03T14:37:09.599Z,68.70
2018-06-03T14:39:38.244Z,69.20
2018-06-03T14:42:06.461Z,69.00
2018-06-03T14:44:33.949Z,69.00
2018-06-03T14:47:01.641Z,69.30
2018-06-03T14:49:29.562Z,69.90
2018-06-03T14:51:58.033Z,71.20
2018-06-03T14:54:25.735Z,71.20
2018-06-03T14:56:54.332Z,71.70
2018-06-03T15:00:04.678Z,71.70
2018-06-03T15:02:34.669Z,70.90
2018-06-03T15:05:03.664Z,70.40
2018-06-03T15:07:33.045Z,69.30
2018-06-03T15:10:01.209Z,69.80
2018-06-03T15:12:30.094Z,70.80
2018-06-03T15:14:58.588Z,72.00
2018-06-03T15:17:26.774Z,71.10
2018-06-03T15:22:23.144Z,71.40
2018-06-03T15:24:51.385Z,70.70
2018-06-03T15:27:19.627Z,71.60
2018-06-03T15:29:47.795Z,71.00
2018-06-03T15:32:16.309Z,71.00
2018-06-03T15:34:45.057Z,70.10
2018-06-03T15:37:14.944Z,69.10
2018-06-03T15:39:43.857Z,70.30
2018-06-03T15:42:12.041Z,69.40
2018-06-03T15:44:40.312Z,69.30
2018-06-03T15:47:08.486Z,68.90
2018-06-03T15:49:36.914Z,67.90
2018-06-03T15:52:05.684Z,67.80
2018-06-03T15:54:33.841Z,67.20
2018-06-03T15:57:02.060Z,66.50
2018-06-03T15:59:30.276Z,67.90
2018-06-03T16:01:58.432Z,67.40
2018-06-03T16:04:26.929Z,68.00
2018-06-03T16:06:55.141Z,68.30
2018-06-03T16:09:23.677Z,67.70
2018-06-03T16:11:51.844Z,67.10
2018-06-03T16:14:20.466Z,67.30
2018-06-03T16:16:48.654Z,68.00
2018-06-03T16:19:16.863Z,66.70
2018-06-03T16:21:45.065Z,66.00
2018-06-03T16:24:13.698Z,66.60
2018-06-03T16:26:41.945Z,68.00
2018-06-03T16:29:10.153Z,67.40
2018-06-03T16:31:38.374Z,68.10
2018-06-03T16:34:06.537Z,68.20
2018-06-03T16:36:34.865Z,67.40
2018-06-03T16:39:03.207Z,67.80
2018-06-03T16:41:31.678Z,66.50
2018-06-03T16:43:59.957Z,66.80
2018-06-03T16:46:28.745Z,66.00
2018-06-03T16:48:56.956Z,64.90
2018-06-03T16:51:25.317Z,64.10
2018-06-03T16:53:53.978Z,64.20
2018-06-03T16:56:22.699Z,65.20
2018-06-03T16:58:51.682Z,65.60
2018-06-03T17:01:22.308Z,65.30
2018-06-03T17:03:51.121Z,65.00
2018-06-03T17:06:19.665Z,63.60
2018-06-03T17:08:48.327Z,61.80
2018-06-03T17:11:16.984Z,60.70
2018-06-03T17:13:45.665Z,59.10
2018-06-03T17:16:14.224Z,58.50
2018-06-03T17:18:43.033Z,57.60
2018-06-03T17:21:11.959Z,56.90
2018-06-03T17:23:40.519Z,56.30
2018-06-03T17:26:08.817Z,56.00
2018-06-03T17:28:37.111Z,55.40
2018-06-03T17:31:05.724Z,56.10
2018-06-03T17:33:34.172Z,56.60
2018-06-03T17:36:02.422Z,57.60
2018-06-03T17:38:30.697Z,59.10
2018-06-03T17:40:59.088Z,59.30
2018-06-03T17:43:27.341Z,60.20
2018-06-03T17:45:56.360Z,61.50
2018-06-03T17:48:25.265Z,62.30
2018-06-03T17:50:53.457Z,63.50
2018-06-03T17:53:21.816Z,65.20
2018-06-03T17:55:50.009Z,66.40
2018-06-03T17:58:18.394Z,68.00
2018-06-03T18:00:46.632Z,68.70
2018-06-03T18:03:14.894Z,69.30
2018-06-03T18:05:43.418Z,70.40
2018-06-03T18:08:11.654Z,71.00
2018-06-03T18:10:40.140Z,71.60
2018-06-03T18:13:08.460Z,72.70
2018-06-03T18:15:36.780Z,73.10
2018-06-03T18:18:05.086Z,73.70
2018-06-03T18:20:33.333Z,74.90
2018-06-03T18:23:01.604Z,74.50
2018-06-03T18:25:29.791Z,75.10
2018-06-03T18:27:58.943Z,75.70
2018-06-03T18:30:27.352Z,75.30
2018-06-03T18:32:55.950Z,76.30
2018-06-03T18:35:24.213Z,76.50
2018-06-03T18:37:52.589Z,76.20
2018-06-03T18:40:21.095Z,76.30
2018-06-03T18:42:49.351Z,77.20
2018-06-03T18:45:17.620Z,77.70
2018-06-03T18:47:45.797Z,77.50
2018-06-03T18:50:14.094Z,78.40
2018-06-03T18:52:42.366Z,78.40
2018-06-03T18:55:10.625Z,78.90
2018-06-03T18:57:38.876Z,79.00
2018-06-03T19:00:07.079Z,79.20
2018-06-03T19:02:35.325Z,80.00
2018-06-03T19:05:03.536Z,80.80
2018-06-03T19:07:31.781Z,81.60
2018-06-03T19:09:59.984Z,81.70
2018-06-03T19:12:28.289Z,82.10
2018-06-03T19:14:56.560Z,82.40
2018-06-03T19:17:24.828Z,82.50
2018-06-03T19:19:53.128Z,82.70
2018-06-03T19:22:21.423Z,83.50
2018-06-03T19:24:49.673Z,84.30
2018-06-03T19:27:17.936Z,84.70
2018-06-03T19:29:46.221Z,84.60
2018-06-03T19:32:14.474Z,85.20
2018-06-03T19:34:42.668Z,85.60
2018-06-03T19:37:10.923Z,86.30
2018-06-03T19:39:39.244Z,87.40
2018-06-03T19:42:07.635Z,87.60
2018-06-03T19:44:35.889Z,88.90
2018-06-03T19:47:04.255Z,88.90
2018-06-03T19:49:32.488Z,89.90
2018-06-03T19:52:01.805Z,90.00
2018-06-03T19:54:30.121Z,90.20
2018-06-03T19:56:58.333Z,90.50
2018-06-03T19:59:26.545Z,90.80
2018-06-03T20:01:54.800Z,91.00
2018-06-03T20:04:23.135Z,91.40
2018-06-03T20:06:51.359Z,91.90
2018-06-03T20:09:19.701Z,91.80
2018-06-03T20:11:47.949Z,92.00
2018-06-03T20:14:16.616Z,92.20
2018-06-03T20:16:44.831Z,92.40
2018-06-03T20:21:41.236Z,93.00
2018-06-03T20:24:09.660Z,93.30
2018-06-03T20:26:37.886Z,93.30
2018-06-03T20:29:06.411Z,93.60
2018-06-03T20:31:34.629Z,93.80
2018-06-03T20:34:02.957Z,94.10
2018-06-03T20:36:31.185Z,94.10
2018-06-03T20:38:59.469Z,94.30
2018-06-03T20:41:27.824Z,94.50
2018-06-03T20:43:56.132Z,94.60
2018-06-03T20:46:24.408Z,94.60
2018-06-03T20:48:52.666Z,94.80
2018-06-03T20:51:20.961Z,94.90
2018-06-03T20:53:49.401Z,95.00
2018-06-03T20:56:17.582Z,95.30
2018-06-03T20:58:45.874Z,95.50
2018-06-03T21:01:14.633Z,95.70
2018-06-03T21:03:43.172Z,95.90
2018-06-03T21:06:11.547Z,95.90
2018-06-03T21:08:40.189Z,96.20
2018-06-03T21:11:08.464Z,96.30
2018-06-03T21:13:38.328Z,96.50
2018-06-03T21:16:06.561Z,96.60
2018-06-03T21:18:34.840Z,96.70
2018-06-03T21:21:03.017Z,96.70
2018-06-03T21:23:31.200Z,96.80
2018-06-03T21:25:59.370Z,96.90
2018-06-03T21:28:27.528Z,97.10
2018-06-03T21:30:56.182Z,97.10
2018-06-03T21:33:24.360Z,97.20
2018-06-03T21:35:52.540Z,97.20
2018-06-03T21:38:20.708Z,97.40
2018-06-03T21:40:48.893Z,97.60
2018-06-03T21:43:17.092Z,97.50
2018-06-03T21:45:45.253Z,97.60
2018-06-03T21:48:13.421Z,97.70
2018-06-03T21:50:41.606Z,97.70
2018-06-03T21:53:10.070Z,97.80
2018-06-03T21:55:38.364Z,98.00
2018-06-03T21:58:06.633Z,98.00
2018-06-03T22:00:34.824Z,98.00
2018-06-03T22:03:03.011Z,98.10
2018-06-03T22:05:31.473Z,98.30
2018-06-03T22:07:59.649Z,98.30
2018-06-03T22:10:27.983Z,98.40
2018-06-03T22:12:56.217Z,98.30
2018-06-03T22:15:24.390Z,98.30
2018-06-03T22:17:52.616Z,98.30
2018-06-03T22:20:20.833Z,98.40
2018-06-03T22:22:49.160Z,98.50
2018-06-03T22:25:17.369Z,98.70
2018-06-03T22:27:45.921Z,98.80
2018-06-03T22:30:14.332Z,98.90
2018-06-03T22:32:42.695Z,99.30
2018-06-03T22:35:11.221Z,98.90
2018-06-03T22:37:39.429Z,99.00
2018-06-03T22:42:35.709Z,99.10
2018-06-03T22:45:04.181Z,99.20
2018-06-03T22:47:32.345Z,99.40
2018-06-03T22:50:00.512Z,99.50
2018-06-03T22:52:28.682Z,99.70
2018-06-03T22:54:56.873Z,99.70
2018-06-03T22:57:44.994Z,99.70
2018-06-03T23:00:20.145Z,99.80
2018-06-03T23:02:54.134Z,99.80
2018-06-03T23:05:22.481Z,99.90
2018-06-03T23:07:51.456Z,99.90
2018-06-03T23:10:19.947Z,99.90
2018-06-03T23:12:48.117Z,99.90
2018-06-03T23:15:16.292Z,99.90
2018-06-03T23:17:44.725Z,99.90
2018-06-03T23:20:12.994Z,99.90
2018-06-03T23:22:41.544Z,99.90
2018-06-03T23:25:09.740Z,99.90
2018-06-03T23:27:37.901Z,99.90
2018-06-03T23:30:07.685Z,99.90
2018-06-03T23:32:36.169Z,99.90
2018-06-03T23:35:04.472Z,99.90
2018-06-03T23:37:32.634Z,99.90
2018-06-03T23:40:01.049Z,99.90
2018-06-03T23:42:29.218Z,99.90
2018-06-03T23:44:57.515Z,99.90
2018-06-03T23:47:26.734Z,99.90
2018-06-03T23:49:54.937Z,99.90
2018-06-03T23:52:23.317Z,99.90
2018-06-03T23:54:51.468Z,99.90
2018-06-03T23:57:19.646Z,99.90
2018-06-03T23:59:47.804Z,99.90
